createdAt,value
2018-11-11T00:00:11.364Z,9.47
2018-11-11T00:02:40.023Z,8.89
2018-11-11T00:05:09.583Z,9.48
2018-11-11T00:07:38.446Z,9.51
2018-11-11T00:10:07.099Z,9.53
2018-11-11T00:12:35.981Z,9.54
2018-11-11T00:15:04.970Z,9.54
2018-11-11T00:17:33.706Z,9.55
2018-11-11T00:20:02.270Z,9.53
2018-11-11T00:22:30.793Z,9.56
2018-11-11T00:24:59.508Z,9.56
2018-11-11T00:27:27.971Z,9.58
2018-11-11T00:29:56.788Z,9.59
2018-11-11T00:32:25.253Z,9.58
2018-11-11T00:34:54.125Z,9.57
2018-11-11T00:37:22.614Z,9.60
2018-11-11T00:39:51.135Z,9.60
2018-11-11T00:42:20.555Z,9.61
2018-11-11T00:44:49.079Z,9.59
2018-11-11T00:47:17.754Z,9.62
2018-11-11T00:49:46.282Z,9.54
2018-11-11T00:52:15.074Z,9.64
2018-11-11T00:54:43.539Z,9.64
2018-11-11T00:57:12.521Z,9.66
2018-11-11T00:59:41.025Z,9.66
2018-11-11T01:02:09.520Z,9.67
2018-11-11T01:04:37.994Z,9.69
2018-11-11T01:07:06.626Z,9.71
2018-11-11T01:09:35.475Z,9.72
2018-11-11T01:12:04.027Z,9.74
2018-11-11T01:14:32.788Z,9.72
2018-11-11T01:17:01.246Z,9.73
2018-11-11T01:19:29.859Z,9.73
2018-11-11T01:21:58.337Z,9.73
2018-11-11T01:24:26.845Z,9.75
2018-11-11T01:26:55.511Z,9.77
2018-11-11T01:29:24.030Z,9.77
2018-11-11T01:31:52.886Z,9.78
2018-11-11T01:34:21.371Z,9.78
2018-11-11T01:36:49.985Z,9.78
2018-11-11T01:39:18.528Z,9.78
2018-11-11T01:41:47.047Z,9.79
2018-11-11T01:44:15.881Z,9.56
2018-11-11T01:46:44.482Z,9.83
2018-11-11T01:49:13.151Z,9.82
2018-11-11T01:51:41.726Z,9.84
2018-11-11T01:54:10.292Z,9.83
2018-11-11T01:56:38.915Z,9.85
2018-11-11T01:59:07.461Z,9.84
2018-11-11T02:01:36.183Z,9.79
2018-11-11T02:04:05.017Z,9.85
2018-11-11T02:06:33.772Z,9.85
2018-11-11T02:09:02.271Z,9.87
2018-11-11T02:11:30.950Z,9.88
2018-11-11T02:13:59.509Z,9.87
2018-11-11T02:16:28.002Z,9.90
2018-11-11T02:18:56.506Z,9.88
2018-11-11T02:21:25.156Z,9.90
2018-11-11T02:23:53.854Z,9.91
2018-11-11T02:26:22.335Z,9.91
2018-11-11T02:28:51.209Z,9.91
2018-11-11T02:31:19.672Z,9.92
2018-11-11T02:33:48.199Z,9.93
2018-11-11T02:36:16.774Z,9.93
2018-11-11T02:38:45.255Z,9.94
2018-11-11T02:41:14.083Z,9.23
2018-11-11T02:43:42.603Z,9.97
2018-11-11T02:46:11.550Z,9.97
2018-11-11T02:48:40.015Z,9.97
2018-11-11T02:51:08.601Z,9.99
2018-11-11T02:53:37.191Z,9.98
2018-11-11T02:56:06.399Z,10.00
2018-11-11T02:58:35.159Z,9.66
2018-11-11T03:01:03.705Z,10.04
2018-11-11T03:03:32.621Z,10.03
2018-11-11T03:06:01.126Z,10.07
2018-11-11T03:08:29.726Z,10.07
2018-11-11T03:10:58.246Z,10.08
2018-11-11T03:13:26.794Z,10.08
2018-11-11T03:15:55.330Z,10.10
2018-11-11T03:18:23.814Z,10.08
2018-11-11T03:20:52.676Z,9.73
2018-11-11T03:23:21.223Z,10.12
2018-11-11T03:25:50.059Z,10.12
2018-11-11T03:28:18.559Z,10.11
2018-11-11T03:30:47.246Z,10.12
2018-11-11T03:33:15.797Z,10.12
2018-11-11T03:35:44.322Z,10.12
2018-11-11T03:38:12.963Z,9.75
2018-11-11T03:40:41.450Z,10.13
2018-11-11T03:43:10.359Z,10.14
2018-11-11T03:45:38.836Z,10.14
2018-11-11T03:48:07.475Z,10.13
2018-11-11T03:50:36.023Z,10.15
2018-11-11T03:53:04.609Z,10.15
2018-11-11T03:55:33.208Z,9.59
2018-11-11T03:58:01.822Z,10.15
2018-11-11T04:00:30.691Z,10.15
2018-11-11T04:02:59.251Z,10.15
2018-11-11T04:05:28.099Z,10.15
2018-11-11T04:07:56.568Z,10.14
2018-11-11T04:10:25.227Z,10.15
2018-11-11T04:12:53.687Z,10.16
2018-11-11T04:15:22.158Z,10.14
2018-11-11T04:17:50.915Z,10.16
2018-11-11T04:20:20.504Z,10.15
2018-11-11T04:22:49.602Z,10.16
2018-11-11T04:25:18.639Z,9.85
2018-11-11T04:27:47.463Z,10.16
2018-11-11T04:30:16.262Z,10.17
2018-11-11T04:32:44.822Z,10.16
2018-11-11T04:35:13.710Z,10.15
2018-11-11T04:37:42.277Z,10.14
2018-11-11T04:40:12.070Z,10.12
2018-11-11T04:42:40.634Z,10.16
2018-11-11T04:45:12.733Z,10.17
2018-11-11T04:47:41.335Z,10.17
2018-11-11T04:50:11.751Z,10.18
2018-11-11T04:52:40.306Z,10.19
2018-11-11T04:55:09.661Z,10.19
2018-11-11T04:57:38.306Z,10.18
2018-11-11T05:00:08.486Z,9.71
2018-11-11T05:02:37.119Z,10.20
2018-11-11T05:05:06.514Z,10.21
2018-11-11T05:07:34.986Z,10.21
2018-11-11T05:10:04.150Z,10.21
2018-11-11T05:12:32.631Z,10.22
2018-11-11T05:15:01.524Z,10.23
2018-11-11T05:17:30.050Z,10.21
2018-11-11T05:19:58.547Z,10.21
2018-11-11T05:22:27.325Z,10.21
2018-11-11T05:24:55.832Z,10.22
2018-11-11T05:27:24.551Z,10.21
2018-11-11T05:29:53.023Z,10.21
2018-11-11T05:32:21.716Z,10.19
2018-11-11T05:34:50.207Z,10.22
2018-11-11T05:37:18.730Z,10.24
2018-11-11T05:39:47.300Z,10.22
2018-11-11T05:42:15.829Z,10.22
2018-11-11T05:44:44.576Z,10.23
2018-11-11T05:47:13.151Z,10.23
2018-11-11T05:49:41.975Z,9.73
2018-11-11T05:52:10.450Z,10.24
2018-11-11T05:54:39.062Z,10.22
2018-11-11T05:57:07.661Z,10.23
2018-11-11T05:59:36.160Z,10.22
2018-11-11T06:02:05.139Z,10.16
2018-11-11T06:04:33.810Z,10.24
2018-11-11T06:07:02.606Z,9.97
2018-11-11T06:09:31.088Z,10.22
2018-11-11T06:11:59.738Z,10.24
2018-11-11T06:14:28.218Z,10.22
2018-11-11T06:16:56.850Z,10.24
2018-11-11T06:19:25.550Z,10.22
2018-11-11T06:21:54.314Z,10.24
2018-11-11T06:24:23.203Z,10.23
2018-11-11T06:26:51.822Z,10.21
2018-11-11T06:29:20.891Z,10.22
2018-11-11T06:31:49.640Z,10.22
2018-11-11T06:34:18.483Z,10.21
2018-11-11T06:36:48.154Z,10.22
2018-11-11T06:39:16.980Z,10.20
2018-11-11T06:41:45.524Z,10.22
2018-11-11T06:44:14.190Z,9.84
2018-11-11T06:46:43.332Z,10.21
2018-11-11T06:49:11.943Z,10.20
2018-11-11T06:51:41.317Z,10.21
2018-11-11T06:54:10.003Z,10.20
2018-11-11T06:56:39.028Z,9.46
2018-11-11T06:59:07.691Z,10.20
2018-11-11T07:01:36.483Z,10.19
2018-11-11T07:04:05.373Z,10.18
2018-11-11T07:06:34.282Z,10.18
2018-11-11T07:09:03.301Z,10.16
2018-11-11T07:11:31.819Z,10.16
2018-11-11T07:14:01.181Z,10.17
2018-11-11T07:16:29.698Z,10.15
2018-11-11T07:18:59.256Z,10.17
2018-11-11T07:21:27.807Z,10.17
2018-11-11T07:23:56.974Z,10.17
2018-11-11T07:26:25.884Z,10.18
2018-11-11T07:28:54.622Z,10.17
2018-11-11T07:31:23.202Z,10.20
2018-11-11T07:33:51.710Z,10.30
2018-11-11T07:36:21.114Z,10.25
2018-11-11T07:38:49.587Z,10.29
2018-11-11T07:41:18.378Z,10.27
2018-11-11T07:43:46.875Z,10.30
2018-11-11T07:46:15.770Z,10.30
2018-11-11T07:48:44.408Z,10.29
2018-11-11T07:51:13.025Z,10.30
2018-11-11T07:53:41.507Z,10.27
2018-11-11T07:56:10.086Z,10.28
2018-11-11T07:58:39.004Z,10.27
2018-11-11T08:01:08.040Z,10.22
2018-11-11T08:03:37.225Z,10.27
2018-11-11T08:06:06.331Z,10.27
2018-11-11T08:08:35.282Z,10.29
2018-11-11T08:11:14.848Z,10.30
2018-11-11T08:13:43.364Z,10.29
2018-11-11T08:16:12.930Z,10.30
2018-11-11T08:18:44.761Z,10.33
2018-11-11T08:21:14.181Z,10.34
2018-11-11T08:23:43.046Z,10.34
2018-11-11T08:26:11.715Z,10.32
2018-11-11T08:28:40.310Z,10.31
2018-11-11T08:31:08.850Z,10.35
2018-11-11T08:33:37.640Z,10.35
2018-11-11T08:36:06.426Z,10.37
2018-11-11T08:38:35.120Z,10.34
2018-11-11T08:41:04.151Z,10.34
2018-11-11T08:43:32.615Z,10.34
2018-11-11T08:46:01.397Z,10.37
2018-11-11T08:48:29.975Z,10.37
2018-11-11T08:50:58.479Z,10.40
2018-11-11T08:53:27.226Z,9.86
2018-11-11T08:55:55.776Z,10.41
2018-11-11T08:58:24.632Z,10.42
2018-11-11T09:00:53.136Z,10.41
2018-11-11T09:03:21.738Z,10.40
2018-11-11T09:05:50.261Z,10.40
2018-11-11T09:08:18.855Z,10.42
2018-11-11T09:10:47.339Z,10.45
2018-11-11T09:13:15.819Z,10.46
2018-11-11T09:15:44.787Z,10.47
2018-11-11T09:18:13.353Z,10.47
2018-11-11T09:20:42.403Z,10.47
2018-11-11T09:23:10.891Z,10.48
2018-11-11T09:25:39.531Z,10.49
2018-11-11T09:28:08.202Z,10.48
2018-11-11T09:30:36.847Z,10.50
2018-11-11T09:33:06.084Z,10.50
2018-11-11T09:35:34.667Z,10.53
2018-11-11T09:38:03.766Z,10.52
2018-11-11T09:40:32.345Z,10.53
2018-11-11T09:43:01.105Z,10.51
2018-11-11T09:45:29.706Z,10.56
2018-11-11T09:47:58.409Z,10.58
2018-11-11T09:50:26.926Z,10.60
2018-11-11T09:52:55.407Z,10.58
2018-11-11T09:55:24.328Z,10.59
2018-11-11T09:57:52.816Z,10.59
2018-11-11T10:00:22.646Z,10.58
2018-11-11T10:02:57.915Z,10.59
2018-11-11T10:05:33.617Z,10.60
2018-11-11T10:09:05.633Z,10.60
2018-11-11T10:11:38.790Z,10.63
2018-11-11T10:14:08.855Z,10.62
2018-11-11T10:16:50.488Z,10.63
2018-11-11T10:19:25.452Z,10.64
2018-11-11T10:23:02.541Z,10.66
2018-11-11T10:27:41.665Z,10.65
2018-11-11T10:31:17.967Z,10.66
2018-11-11T10:33:53.602Z,10.69
2018-11-11T10:36:42.771Z,10.71
2018-11-11T10:39:17.243Z,10.68
2018-11-11T10:41:57.124Z,10.69
2018-11-11T10:45:03.295Z,10.70
2018-11-11T10:48:35.706Z,10.69
2018-11-11T10:51:05.823Z,10.69
2018-11-11T10:53:34.326Z,10.67
2018-11-11T10:56:03.171Z,10.70
2018-11-11T10:58:31.655Z,10.70
2018-11-11T11:01:05.300Z,10.66
2018-11-11T11:03:35.071Z,10.68
2018-11-11T11:06:04.363Z,10.70
2018-11-11T11:08:33.143Z,10.70
2018-11-11T11:11:01.817Z,10.72
2018-11-11T11:13:30.756Z,10.71
2018-11-11T11:15:59.815Z,10.71
2018-11-11T11:18:28.470Z,10.72
2018-11-11T11:20:57.188Z,10.74
2018-11-11T11:23:25.663Z,10.73
2018-11-11T11:25:54.343Z,10.71
2018-11-11T11:28:22.819Z,10.70
2018-11-11T11:30:51.361Z,10.71
2018-11-11T11:33:20.170Z,10.68
2018-11-11T11:35:48.739Z,10.71
2018-11-11T11:38:17.568Z,10.64
2018-11-11T11:40:46.140Z,10.27
2018-11-11T11:43:14.892Z,10.70
2018-11-11T11:45:43.470Z,10.70
2018-11-11T11:48:12.078Z,10.69
2018-11-11T11:50:40.722Z,10.69
2018-11-11T11:53:09.231Z,10.71
2018-11-11T11:55:37.919Z,10.72
2018-11-11T11:58:14.546Z,10.72
2018-11-11T12:00:43.391Z,10.71
2018-11-11T12:03:12.397Z,10.73
2018-11-11T12:05:41.045Z,10.75
2018-11-11T12:08:09.807Z,10.74
2018-11-11T12:10:38.320Z,10.74
2018-11-11T12:13:07.390Z,10.72
2018-11-11T12:15:36.149Z,10.72
2018-11-11T12:18:04.708Z,10.74
2018-11-11T12:20:33.604Z,10.77
2018-11-11T12:23:02.236Z,10.77
2018-11-11T12:25:31.106Z,10.20
2018-11-11T12:27:59.723Z,10.76
2018-11-11T12:30:28.582Z,10.78
2018-11-11T12:32:57.075Z,10.79
2018-11-11T12:35:25.584Z,10.77
2018-11-11T12:37:54.198Z,10.79
2018-11-11T12:40:22.783Z,10.79
2018-11-11T12:42:51.703Z,10.80
2018-11-11T12:45:20.251Z,10.78
2018-11-11T12:47:48.943Z,10.75
2018-11-11T12:50:17.612Z,10.76
2018-11-11T12:52:46.359Z,10.75
2018-11-11T12:55:15.207Z,10.76
2018-11-11T12:57:43.691Z,10.75
2018-11-11T13:00:13.843Z,10.76
2018-11-11T13:02:42.380Z,10.77
2018-11-11T13:05:11.690Z,10.79
2018-11-11T13:07:40.247Z,10.76
2018-11-11T13:10:12.291Z,10.76
2018-11-11T13:12:40.967Z,10.75
2018-11-11T13:15:11.216Z,10.75
2018-11-11T13:17:40.279Z,10.75
2018-11-11T13:20:11.423Z,10.67
2018-11-11T13:22:40.172Z,10.72
2018-11-11T13:25:09.762Z,10.71
2018-11-11T13:27:38.626Z,10.70
2018-11-11T13:30:08.903Z,10.74
2018-11-11T13:32:37.603Z,10.68
2018-11-11T13:35:07.527Z,10.70
2018-11-11T13:37:36.070Z,10.68
2018-11-11T13:40:06.234Z,10.71
2018-11-11T13:42:34.788Z,10.71
2018-11-11T13:45:03.329Z,10.72
2018-11-11T13:47:31.887Z,10.69
2018-11-11T13:50:00.627Z,10.65
2018-11-11T13:52:29.256Z,10.65
2018-11-11T13:54:57.941Z,10.29
2018-11-11T13:57:26.505Z,10.64
2018-11-11T13:59:55.059Z,10.62
2018-11-11T14:02:23.729Z,10.61
2018-11-11T14:04:52.312Z,10.58
2018-11-11T14:07:21.202Z,10.62
2018-11-11T14:09:49.694Z,10.60
2018-11-11T14:12:18.475Z,10.58
2018-11-11T14:14:46.972Z,10.59
2018-11-11T14:17:15.527Z,10.53
2018-11-11T14:19:44.106Z,10.56
2018-11-11T14:22:12.705Z,10.54
2018-11-11T14:24:41.518Z,10.55
2018-11-11T14:27:09.947Z,10.56
2018-11-11T14:29:38.642Z,10.56
2018-11-11T14:32:07.259Z,10.52
2018-11-11T14:34:35.841Z,10.47
2018-11-11T14:37:04.366Z,10.51
2018-11-11T14:39:32.857Z,10.52
2018-11-11T14:42:01.543Z,10.53
2018-11-11T14:44:30.067Z,10.53
2018-11-11T14:46:58.953Z,10.50
2018-11-11T14:49:27.427Z,10.50
2018-11-11T14:51:56.069Z,10.49
2018-11-11T14:54:24.892Z,10.46
2018-11-11T14:56:53.775Z,10.48
2018-11-11T14:59:22.777Z,10.48
2018-11-11T15:01:51.271Z,10.47
2018-11-11T15:04:20.274Z,10.46
2018-11-11T15:06:48.770Z,10.44
2018-11-11T15:09:17.864Z,10.44
2018-11-11T15:11:46.384Z,10.41
2018-11-11T15:14:15.200Z,10.39
2018-11-11T15:16:43.795Z,10.39
2018-11-11T15:19:12.538Z,10.38
2018-11-11T15:21:41.512Z,10.38
2018-11-11T15:24:10.102Z,10.37
2018-11-11T15:26:39.232Z,10.38
2018-11-11T15:29:07.935Z,10.34
2018-11-11T15:31:36.827Z,10.32
2018-11-11T15:34:05.890Z,10.35
2018-11-11T15:36:34.655Z,10.31
2018-11-11T15:39:03.299Z,10.30
2018-11-11T15:41:32.013Z,8.64
2018-11-11T15:44:00.519Z,10.27
2018-11-11T15:46:29.042Z,10.25
2018-11-11T15:48:57.917Z,10.25
2018-11-11T15:51:26.394Z,10.26
2018-11-11T15:53:55.335Z,10.25
2018-11-11T15:56:23.887Z,10.24
2018-11-11T15:58:52.515Z,10.24
2018-11-11T16:01:21.092Z,10.23
2018-11-11T16:03:50.188Z,10.25
2018-11-11T16:06:18.815Z,10.23
2018-11-11T16:08:47.318Z,10.21
2018-11-11T16:11:16.077Z,9.86
2018-11-11T16:13:44.543Z,10.23
2018-11-11T16:16:13.392Z,10.21
2018-11-11T16:18:41.999Z,10.20
2018-11-11T16:21:10.483Z,10.19
2018-11-11T16:23:39.393Z,10.18
2018-11-11T16:26:07.900Z,10.17
2018-11-11T16:28:36.695Z,10.18
2018-11-11T16:31:05.677Z,10.14
2018-11-11T16:33:34.689Z,10.13
2018-11-11T16:36:03.331Z,10.15
2018-11-11T16:38:32.155Z,10.14
2018-11-11T16:41:00.881Z,10.15
2018-11-11T16:43:29.656Z,10.13
2018-11-11T16:45:58.503Z,10.15
2018-11-11T16:48:26.972Z,10.16
2018-11-11T16:50:56.191Z,10.15
2018-11-11T16:53:24.754Z,10.16
2018-11-11T16:55:53.670Z,10.14
2018-11-11T16:58:22.146Z,10.12
2018-11-11T17:00:50.943Z,9.49
2018-11-11T17:03:19.424Z,10.13
2018-11-11T17:05:48.106Z,10.11
2018-11-11T17:08:16.763Z,10.10
2018-11-11T17:10:45.292Z,10.10
2018-11-11T17:13:15.055Z,10.11
2018-11-11T17:15:43.639Z,10.09
2018-11-11T17:18:12.554Z,10.11
2018-11-11T17:20:41.239Z,10.10
2018-11-11T17:23:10.084Z,9.72
2018-11-11T17:25:38.731Z,10.11
2018-11-11T17:28:07.512Z,10.10
2018-11-11T17:30:36.067Z,10.11
2018-11-11T17:33:04.984Z,10.08
2018-11-11T17:35:33.479Z,10.07
2018-11-11T17:38:02.009Z,10.05
2018-11-11T17:40:31.459Z,10.07
2018-11-11T17:43:00.661Z,10.04
2018-11-11T17:45:29.611Z,10.03
2018-11-11T17:47:58.347Z,10.03
2018-11-11T17:50:30.328Z,9.32
2018-11-11T17:52:59.526Z,10.05
2018-11-11T17:55:28.702Z,9.43
2018-11-11T17:57:57.138Z,10.03
2018-11-11T18:00:27.184Z,10.06
2018-11-11T18:02:56.445Z,10.07
2018-11-11T18:05:26.527Z,10.08
2018-11-11T18:07:55.127Z,10.07
2018-11-11T18:10:24.732Z,10.09
2018-11-11T18:12:53.296Z,10.08
2018-11-11T18:15:23.599Z,10.07
2018-11-11T18:17:52.079Z,10.03
2018-11-11T18:20:22.123Z,9.73
2018-11-11T18:22:51.505Z,10.07
2018-11-11T18:25:20.471Z,10.07
2018-11-11T18:27:49.034Z,10.06
2018-11-11T18:30:22.144Z,10.06
2018-11-11T18:32:50.787Z,10.06
2018-11-11T18:35:20.567Z,9.94
2018-11-11T18:37:49.093Z,10.08
2018-11-11T18:40:19.367Z,10.08
2018-11-11T18:42:47.880Z,10.09
2018-11-11T18:45:17.977Z,10.11
2018-11-11T18:47:47.318Z,10.08
2018-11-11T18:50:18.510Z,10.11
2018-11-11T18:52:47.124Z,10.11
2018-11-11T18:55:15.953Z,10.12
2018-11-11T18:57:45.058Z,10.13
2018-11-11T19:00:18.255Z,10.11
2018-11-11T19:02:47.978Z,10.11
2018-11-11T19:05:17.467Z,10.12
2018-11-11T19:07:46.316Z,10.13
2018-11-11T19:10:16.683Z,10.15
2018-11-11T19:12:46.507Z,10.16
2018-11-11T19:15:16.074Z,10.17
2018-11-11T19:17:45.411Z,10.17
2018-11-11T19:20:15.254Z,10.18
2018-11-11T19:22:44.079Z,10.16
2018-11-11T19:25:14.674Z,10.15
2018-11-11T19:27:45.188Z,10.17
2018-11-11T19:30:14.737Z,10.18
2018-11-11T19:32:44.769Z,10.20
2018-11-11T19:35:14.606Z,10.19
2018-11-11T19:37:51.593Z,9.81
2018-11-11T19:40:21.707Z,10.19
2018-11-11T19:42:51.223Z,10.22
2018-11-11T19:45:21.485Z,10.23
2018-11-11T19:47:50.809Z,10.23
2018-11-11T19:50:20.862Z,10.24
2018-11-11T19:52:51.160Z,10.25
2018-11-11T19:55:20.491Z,10.25
2018-11-11T19:57:49.718Z,10.27
2018-11-11T20:00:23.573Z,10.27
2018-11-11T20:02:53.034Z,10.27
2018-11-11T20:05:21.991Z,10.28
2018-11-11T20:07:51.891Z,10.29
2018-11-11T20:10:21.152Z,10.28
2018-11-11T20:12:49.754Z,10.28
2018-11-11T20:15:23.143Z,10.31
2018-11-11T20:17:51.641Z,10.32
2018-11-11T20:20:21.599Z,10.35
2018-11-11T20:22:50.404Z,10.34
2018-11-11T20:25:20.048Z,10.36
2018-11-11T20:27:48.900Z,10.26
2018-11-11T20:30:19.672Z,10.39
2018-11-11T20:32:48.207Z,10.41
2018-11-11T20:35:21.049Z,10.41
2018-11-11T20:37:49.562Z,10.43
2018-11-11T20:40:19.872Z,10.44
2018-11-11T20:42:48.812Z,10.46
2018-11-11T20:45:19.180Z,10.46
2018-11-11T20:47:48.475Z,10.48
2018-11-11T20:50:18.595Z,10.48
2018-11-11T20:52:48.291Z,10.49
2018-11-11T20:55:17.835Z,10.52
2018-11-11T20:57:46.347Z,10.53
2018-11-11T21:00:17.791Z,10.53
2018-11-11T21:02:46.311Z,10.54
2018-11-11T21:05:16.460Z,10.53
2018-11-11T21:07:45.143Z,10.56
2018-11-11T21:10:16.112Z,10.57
2018-11-11T21:12:44.717Z,10.56
2018-11-11T21:15:14.602Z,10.56
2018-11-11T21:17:43.663Z,10.57
2018-11-11T21:20:14.816Z,10.58
2018-11-11T21:22:43.586Z,10.58
2018-11-11T21:25:12.480Z,10.59
2018-11-11T21:27:42.037Z,10.58
2018-11-11T21:30:13.174Z,10.58
2018-11-11T21:32:41.862Z,10.61
2018-11-11T21:35:10.988Z,10.61
2018-11-11T21:37:39.613Z,10.60
2018-11-11T21:40:11.235Z,10.61
2018-11-11T21:42:40.708Z,10.59
2018-11-11T21:45:11.067Z,10.60
2018-11-11T21:47:40.208Z,10.59
2018-11-11T21:50:11.200Z,10.55
2018-11-11T21:52:40.036Z,10.26
2018-11-11T21:55:09.029Z,10.60
2018-11-11T21:57:37.890Z,10.24
2018-11-11T22:00:09.413Z,10.63
2018-11-11T22:02:38.098Z,10.64
2018-11-11T22:05:08.346Z,10.63
2018-11-11T22:07:37.576Z,10.64
2018-11-11T22:10:08.067Z,10.63
2018-11-11T22:12:36.693Z,10.63
2018-11-11T22:15:06.355Z,10.64
2018-11-11T22:17:35.189Z,10.24
2018-11-11T22:20:03.843Z,10.64
2018-11-11T22:22:32.679Z,10.65
2018-11-11T22:25:01.154Z,10.66
2018-11-11T22:27:29.766Z,10.68
2018-11-11T22:29:58.271Z,10.67
2018-11-11T22:32:26.835Z,10.67
2018-11-11T22:34:55.535Z,10.34
2018-11-11T22:37:24.154Z,10.63
2018-11-11T22:39:52.991Z,10.62
2018-11-11T22:42:21.527Z,10.59
2018-11-11T22:44:50.540Z,10.58
2018-11-11T22:47:19.095Z,10.59
2018-11-11T22:49:47.576Z,10.58
2018-11-11T22:52:16.163Z,10.59
2018-11-11T22:54:44.765Z,10.59
2018-11-11T22:57:13.696Z,10.59
2018-11-11T23:02:02.515Z,10.60
2018-11-11T23:04:31.122Z,10.60
2018-11-11T23:06:59.602Z,10.60
2018-11-11T23:09:28.154Z,10.61
2018-11-11T23:11:56.895Z,10.63
2018-11-11T23:14:25.383Z,10.63
2018-11-11T23:16:54.254Z,10.65
2018-11-11T23:19:22.812Z,10.65
2018-11-11T23:21:51.418Z,10.65
2018-11-11T23:24:19.991Z,10.70
2018-11-11T23:26:48.466Z,10.71
2018-11-11T23:29:17.294Z,10.11
2018-11-11T23:31:45.781Z,10.72
2018-11-11T23:34:14.610Z,10.73
2018-11-11T23:36:43.080Z,10.74
2018-11-11T23:39:11.896Z,10.74
2018-11-11T23:41:40.399Z,10.73
2018-11-11T23:44:09.699Z,10.74
2018-11-11T23:46:38.930Z,10.34
2018-11-11T23:49:08.188Z,10.74
2018-11-11T23:51:37.082Z,10.62
2018-11-11T23:54:05.957Z,10.75
2018-11-11T23:56:34.884Z,10.76
2018-11-11T23:59:03.370Z,10.76
